Time;durP1;ratioP1;P1;durP2;ratioP2;P2;SDS_P1;SDS_P2;PMS_P1;PMS_P2;Temp;Humidity;BMP_temperature;BMP_pressure;BME280_temperature;BME280_humidity;BME280_pressure;Samples;Min_cycle;Max_cycle;Signal;HPM_P1;HPM_P2
2021/09/18 00:02:05;;;;;;;5.57;3.10;;;21.40;95.20;;;;;;4994680;28;20022;-70
2021/09/18 00:04:32;;;;;;;3.38;3.17;;;21.40;94.40;;;;;;4995684;28;20019;-70
2021/09/18 00:06:59;;;;;;;3.50;3.20;;;21.40;94.60;;;;;;4995605;28;20022;-70
2021/09/18 00:09:27;;;;;;;5.15;3.08;;;21.50;95.20;;;;;;4995603;28;20042;-71
2021/09/18 00:11:54;;;;;;;4.03;2.92;;;21.60;94.80;;;;;;4995716;28;20030;-71
2021/09/18 00:14:23;;;;;;;4.85;2.65;;;21.60;94.80;;;;;;4995516;28;20514;-71
2021/09/18 00:16:50;;;;;;;4.82;3.10;;;21.70;94.10;;;;;;4995468;28;20041;-71
2021/09/18 00:19:18;;;;;;;5.43;3.40;;;21.80;94.20;;;;;;4994051;28;20022;-72
2021/09/18 00:21:45;;;;;;;2.95;2.60;;;21.90;93.60;;;;;;4994093;28;20058;-72
2021/09/18 00:24:13;;;;;;;3.22;2.65;;;22.00;94.00;;;;;;4995118;28;20562;-73
2021/09/18 00:26:40;;;;;;;2.92;2.60;;;22.30;94.20;;;;;;4994939;28;20440;-73
2021/09/18 00:29:07;;;;;;;3.63;2.47;;;22.30;93.60;;;;;;4993898;28;20109;-71
2021/09/18 00:31:35;;;;;;;3.63;2.40;;;22.20;93.20;;;;;;4995224;28;20014;-72
2021/09/18 00:34:02;;;;;;;3.22;2.60;;;22.00;94.20;;;;;;4993974;28;20018;-72
2021/09/18 00:36:30;;;;;;;2.92;2.33;;;22.00;94.00;;;;;;4995186;28;20022;-72
2021/09/18 00:38:58;;;;;;;3.35;2.53;;;22.00;94.20;;;;;;4993756;28;20026;-72
2021/09/18 00:41:25;;;;;;;2.88;2.38;;;22.00;94.50;;;;;;4995371;28;20022;-72
2021/09/18 00:43:55;;;;;;;4.88;2.65;;;22.00;94.20;;;;;;4993801;28;20378;-73
2021/09/18 00:46:24;;;;;;;3.75;2.63;;;22.00;93.70;;;;;;4995206;28;20077;-73
2021/09/18 00:48:51;;;;;;;4.32;2.33;;;22.00;94.00;;;;;;4993605;28;20026;-73
2021/09/18 00:51:20;;;;;;;4.03;3.08;;;22.00;93.20;;;;;;4994863;28;20026;-72
2021/09/18 00:53:48;;;;;;;4.97;2.58;;;22.00;93.40;;;;;;4993721;28;20058;-71
2021/09/18 00:56:17;;;;;;;2.95;2.75;;;22.00;94.10;;;;;;4994962;28;20423;-72
2021/09/18 00:58:45;;;;;;;3.17;2.85;;;22.10;93.80;;;;;;4993503;28;20426;-74
2021/09/18 01:01:12;;;;;;;4.13;3.15;;;22.20;94.20;;;;;;4994710;28;20018;-71
2021/09/18 01:03:44;;;;;;;3.33;2.97;;;22.20;93.80;;;;;;4993387;28;20368;-72
2021/09/18 01:06:13;;;;;;;4.47;3.17;;;22.30;94.00;;;;;;4994701;28;20070;-72
2021/09/18 01:08:42;;;;;;;3.40;2.80;;;22.40;94.30;;;;;;4993077;28;20483;-73
2021/09/18 01:11:10;;;;;;;4.72;2.90;;;22.30;93.30;;;;;;4993465;28;20030;-73
2021/09/18 01:13:37;;;;;;;4.13;3.25;;;22.40;93.50;;;;;;4993166;28;20034;-73
2021/09/18 01:16:05;;;;;;;4.55;2.78;;;22.50;93.40;;;;;;4993281;28;20038;-73
2021/09/18 01:18:32;;;;;;;3.53;2.75;;;22.60;93.50;;;;;;4994422;28;20030;-72
2021/09/18 01:21:00;;;;;;;3.28;2.97;;;22.70;93.30;;;;;;4994416;28;20109;-73
2021/09/18 01:23:27;;;;;;;7.03;3.30;;;22.70;92.50;;;;;;4993272;28;20475;-72
2021/09/18 01:25:57;;;;;;;4.70;3.05;;;22.70;92.70;;;;;;4993084;28;20030;-73
2021/09/18 01:28:25;;;;;;;3.13;2.85;;;22.70;92.30;;;;;;4993106;28;20033;-73
2021/09/18 01:30:53;;;;;;;4.40;3.00;;;22.70;92.40;;;;;;4994481;28;20034;-73
2021/09/18 01:33:21;;;;;;;3.15;2.83;;;22.60;92.30;;;;;;4994352;28;20486;-72
2021/09/18 01:35:48;;;;;;;4.57;3.00;;;22.60;92.50;;;;;;4993918;28;20076;-73
2021/09/18 01:38:15;;;;;;;3.40;3.20;;;22.60;93.00;;;;;;4992328;28;20034;-73
2021/09/18 01:40:47;;;;;;;4.82;3.20;;;22.70;93.20;;;;;;4994372;28;20069;-72
2021/09/18 01:43:15;;;;;;;3.97;2.83;;;22.90;92.60;;;;;;4992815;28;20026;-71
2021/09/18 01:45:43;;;;;;;4.70;2.95;;;23.00;92.20;;;;;;4994141;28;20018;-72
2021/09/18 01:48:14;;;;;;;4.13;2.88;;;23.00;92.30;;;;;;4993952;28;20029;-73
2021/09/18 01:50:48;;;;;;;4.53;2.90;;;23.10;92.20;;;;;;4993972;28;20038;-73
2021/09/18 01:53:19;;;;;;;3.47;2.88;;;23.30;92.40;;;;;;4992873;28;20516;-72
2021/09/18 01:55:47;;;;;;;4.85;3.05;;;23.30;92.50;;;;;;4994343;28;20033;-71
2021/09/18 01:58:15;;;;;;;3.92;3.08;;;23.30;92.10;;;;;;4992583;28;20169;-72
2021/09/18 02:00:46;;;;;;;3.55;2.95;;;23.40;92.50;;;;;;4992797;28;20022;-72
2021/09/18 02:03:13;;;;;;;4.25;3.08;;;23.40;92.20;;;;;;4994183;28;20515;-73
2021/09/18 02:05:41;;;;;;;3.10;2.80;;;23.50;92.10;;;;;;4994007;28;20355;-73
2021/09/18 02:08:14;;;;;;;3.05;2.85;;;23.50;91.80;;;;;;4992292;28;20034;-72
2021/09/18 02:10:42;;;;;;;5.35;2.92;;;23.60;92.70;;;;;;4992285;28;20097;-73
2021/09/18 02:13:11;;;;;;;3.65;2.90;;;23.80;92.50;;;;;;4992784;28;20038;-73
2021/09/18 02:15:39;;;;;;;3.85;2.90;;;24.00;92.10;;;;;;4992601;28;20032;-73
2021/09/18 02:18:08;;;;;;;3.67;2.97;;;24.00;91.60;;;;;;4992388;28;20066;-73
2021/09/18 02:20:37;;;;;;;6.97;3.00;;;24.10;91.80;;;;;;4992831;28;20027;-73
2021/09/18 02:23:06;;;;;;;3.33;2.90;;;24.20;92.30;;;;;;4993698;28;20034;-73
2021/09/18 02:25:34;;;;;;;4.70;3.17;;;24.40;92.30;;;;;;4976619;28;20034;-73
2021/09/18 02:28:01;;;;;;;3.97;3.38;;;24.60;91.50;;;;;;4992365;28;20057;-73
2021/09/18 02:30:31;;;;;;;4.45;3.30;;;24.60;92.10;;;;;;4993757;28;20085;-72
2021/09/18 02:33:00;;;;;;;4.07;3.00;;;24.60;91.30;;;;;;4993542;28;20023;-72
2021/09/18 02:35:29;;;;;;;3.50;3.13;;;24.50;91.50;;;;;;4992541;28;20410;-72
2021/09/18 02:37:58;;;;;;;3.53;3.22;;;24.50;91.40;;;;;;4993530;28;20030;-72
2021/09/18 02:40:27;;;;;;;4.45;3.45;;;24.50;91.60;;;;;;4993615;28;20512;-74
2021/09/18 02:42:58;;;;;;;6.45;3.55;;;24.40;91.20;;;;;;4992349;28;20022;-73
2021/09/18 02:45:27;;;;;;;3.80;3.33;;;24.60;91.90;;;;;;4993548;28;20483;-73
2021/09/18 02:47:54;;;;;;;4.35;3.70;;;24.80;92.50;;;;;;4994312;28;20096;-73
2021/09/18 02:50:29;;;;;;;6.68;3.50;;;24.70;93.30;;;;;;4997027;28;20027;-73
2021/09/18 02:52:56;;;;;;;9.05;3.60;;;24.80;93.70;;;;;;4995964;28;20168;-73
2021/09/18 02:55:24;;;;;;;4.40;3.22;;;24.70;93.10;;;;;;4995874;28;20513;-73
2021/09/18 02:57:51;;;;;;;5.30;3.70;;;24.60;93.50;;;;;;4995870;28;20420;-74
2021/09/18 03:00:19;;;;;;;7.38;3.35;;;24.80;94.30;;;;;;4997048;28;20467;-71
2021/09/18 03:02:47;;;;;;;6.15;3.40;;;24.70;94.00;;;;;;4997186;28;20018;-73
2021/09/18 03:05:15;;;;;;;8.25;3.80;;;24.70;94.20;;;;;;4995601;28;20071;-72
2021/09/18 03:07:43;;;;;;;6.70;3.40;;;24.60;94.10;;;;;;4996946;28;20026;-72
2021/09/18 03:10:11;;;;;;;7.18;3.30;;;24.50;94.30;;;;;;4996571;28;20089;-72
2021/09/18 03:12:39;;;;;;;4.03;3.50;;;24.20;94.70;;;;;;4996766;28;20030;-72
2021/09/18 03:15:08;;;;;;;5.55;3.60;;;24.00;95.00;;;;;;4996643;28;20034;-72
2021/09/18 03:17:36;;;;;;;5.15;3.80;;;23.80;95.00;;;;;;4996558;28;20475;-72
2021/09/18 03:20:05;;;;;;;5.38;3.95;;;23.70;95.30;;;;;;4996815;28;20109;-72
2021/09/18 03:22:33;;;;;;;5.22;3.70;;;23.60;95.40;;;;;;4995345;28;20404;-72
2021/09/18 03:25:01;;;;;;;6.97;3.80;;;23.50;96.00;;;;;;4995159;28;20022;-75
2021/09/18 03:27:28;;;;;;;6.28;3.42;;;23.50;96.00;;;;;;4995252;28;20080;-72
2021/09/18 03:29:55;;;;;;;7.53;3.80;;;23.40;96.00;;;;;;4995282;28;20114;-73
2021/09/18 03:32:32;;;;;;;5.15;3.67;;;23.20;95.60;;;;;;4996445;28;20033;-72
2021/09/18 03:34:59;;;;;;;8.57;3.70;;;23.10;96.20;;;;;;4996434;28;20149;-73
2021/09/18 03:37:26;;;;;;;7.97;4.05;;;22.90;96.60;;;;;;4996391;28;20549;-72
2021/09/18 03:39:54;;;;;;;5.68;3.55;;;22.70;97.50;;;;;;4994896;28;20514;-72
2021/09/18 03:42:21;;;;;;;8.35;3.50;;;22.60;97.30;;;;;;4996275;28;20018;-72
2021/09/18 03:44:49;;;;;;;8.23;3.90;;;22.60;97.50;;;;;;4995900;28;20021;-71
2021/09/18 03:47:16;;;;;;;5.47;3.35;;;22.40;98.00;;;;;;4996021;28;20114;-72
2021/09/18 03:49:44;;;;;;;4.90;3.30;;;22.40;98.00;;;;;;4996194;28;20030;-72
2021/09/18 03:52:11;;;;;;;6.07;3.50;;;22.30;99.00;;;;;;4996124;28;20523;-72
2021/09/18 03:54:38;;;;;;;6.97;4.15;;;22.10;99.90;;;;;;4994834;28;20088;-72
2021/09/18 03:57:06;;;;;;;11.23;5.60;;;21.90;99.90;;;;;;4995972;28;20113;-72
2021/09/18 03:59:33;;;;;;;17.52;9.13;;;21.70;99.90;;;;;;4994885;28;20018;-72
2021/09/18 04:02:01;;;;;;;22.63;10.77;;;21.20;99.90;;;;;;4995733;28;20029;-72
2021/09/18 04:04:28;;;;;;;18.40;10.20;;;20.70;99.90;;;;;;4994406;28;20045;-72
2021/09/18 04:06:55;;;;;;;18.10;10.27;;;20.10;99.90;;;;;;4995741;28;20043;-72
2021/09/18 04:09:23;;;;;;;15.73;10.90;;;19.70;99.90;;;;;;4994260;28;20050;-73
2021/09/18 04:11:50;;;;;;;15.70;10.73;;;19.40;99.90;;;;;;4995554;28;20019;-72
2021/09/18 04:14:18;;;;;;;14.13;10.80;;;19.30;99.90;;;;;;4994446;28;20381;-72
2021/09/18 04:16:45;;;;;;;16.70;11.27;;;19.20;99.90;;;;;;4995646;28;20022;-72
2021/09/18 04:19:13;;;;;;;17.25;11.27;;;19.20;99.90;;;;;;4995744;28;20046;-72
2021/09/18 04:21:40;;;;;;;12.60;11.50;;;19.20;99.90;;;;;;4994046;28;20018;-72
2021/09/18 04:24:08;;;;;;;12.75;11.63;;;19.00;99.90;;;;;;4995818;28;20026;-71
2021/09/18 04:26:35;;;;;;;12.02;10.82;;;18.90;99.90;;;;;;4995507;28;20475;-71
2021/09/18 04:29:04;;;;;;;12.88;10.95;;;18.90;99.90;;;;;;4994064;28;20027;-71
2021/09/18 04:31:31;;;;;;;12.05;10.85;;;18.90;99.90;;;;;;4994164;28;20033;-71
2021/09/18 04:33:58;;;;;;;12.07;11.18;;;18.90;99.90;;;;;;4993970;28;20029;-70
2021/09/18 04:36:26;;;;;;;13.45;12.25;;;18.90;99.90;;;;;;4995476;28;20026;-70
2021/09/18 04:38:53;;;;;;;13.27;11.50;;;18.90;99.90;;;;;;4993929;28;20069;-71
2021/09/18 04:41:21;;;;;;;12.48;11.18;;;18.80;99.90;;;;;;4995309;28;20018;-73
2021/09/18 04:43:49;;;;;;;12.63;11.55;;;18.80;99.90;;;;;;4995001;28;20031;-68
2021/09/18 04:46:16;;;;;;;11.38;9.55;;;18.70;99.90;;;;;;4995073;28;20471;-69
2021/09/18 04:48:44;;;;;;;11.50;10.40;;;18.70;99.90;;;;;;4995087;28;20410;-67
2021/09/18 04:51:11;;;;;;;13.30;11.82;;;18.70;99.90;;;;;;4994883;28;20026;-67
2021/09/18 04:53:38;;;;;;;13.48;12.23;;;18.80;99.90;;;;;;4994875;28;20097;-68
2021/09/18 04:56:06;;;;;;;17.15;14.38;;;18.80;99.90;;;;;;4994785;28;20038;-67
2021/09/18 04:58:33;;;;;;;14.52;12.93;;;18.90;99.90;;;;;;4993398;28;20077;-70
2021/09/18 05:01:00;;;;;;;13.52;12.18;;;18.70;99.90;;;;;;4994783;28;20029;-67
2021/09/18 05:03:28;;;;;;;18.48;13.07;;;18.70;99.90;;;;;;4994366;28;20106;-66
2021/09/18 05:05:55;;;;;;;21.17;14.05;;;18.80;99.90;;;;;;4994280;28;20384;-69
2021/09/18 05:08:23;;;;;;;15.20;13.80;;;18.90;99.90;;;;;;4994048;28;20026;-68
2021/09/18 05:10:50;;;;;;;18.48;13.00;;;18.80;99.90;;;;;;4994376;28;20431;-68
2021/09/18 05:13:17;;;;;;;14.25;12.68;;;18.80;99.90;;;;;;4994118;28;20076;-68
2021/09/18 05:15:45;;;;;;;15.63;12.80;;;18.80;99.90;;;;;;4992765;28;20023;-68
2021/09/18 05:18:12;;;;;;;17.02;13.18;;;18.90;99.90;;;;;;4994016;28;20399;-68
2021/09/18 05:20:39;;;;;;;19.42;14.07;;;19.00;99.90;;;;;;4994008;28;20098;-68
2021/09/18 05:23:07;;;;;;;15.18;12.85;;;18.90;99.90;;;;;;4993939;28;20533;-67
2021/09/18 05:25:34;;;;;;;13.23;12.00;;;18.90;99.90;;;;;;4993793;28;20504;-69
2021/09/18 05:28:02;;;;;;;13.25;11.90;;;19.00;99.90;;;;;;4992670;28;20029;-68
2021/09/18 05:30:29;;;;;;;11.65;10.85;;;19.00;99.90;;;;;;4993863;28;20509;-68
2021/09/18 05:32:56;;;;;;;12.25;11.23;;;18.90;99.90;;;;;;4994006;28;20053;-69
2021/09/18 05:35:24;;;;;;;9.35;8.70;;;18.90;99.90;;;;;;4993795;28;20038;-68
2021/09/18 05:37:51;;;;;;;10.73;9.93;;;18.90;99.90;;;;;;4993749;28;20086;-69
2021/09/18 05:40:24;;;;;;;8.68;8.13;;;18.80;99.90;;;;;;4993684;28;20097;-68
2021/09/18 05:42:52;;;;;;;9.00;8.35;;;18.90;99.90;;;;;;4993780;28;20018;-68
2021/09/18 05:45:19;;;;;;;7.65;7.25;;;19.00;99.90;;;;;;4992327;28;20057;-70
2021/09/18 05:47:47;;;;;;;8.77;8.18;;;19.10;99.90;;;;;;4993653;28;20030;-67
2021/09/18 05:50:14;;;;;;;8.25;7.85;;;19.20;99.90;;;;;;4993579;28;20061;-69
2021/09/18 05:52:41;;;;;;;8.38;7.82;;;19.20;99.90;;;;;;4993445;28;20109;-66
2021/09/18 05:55:10;;;;;;;8.02;7.63;;;19.20;99.90;;;;;;4993496;28;20387;-69
2021/09/18 05:57:37;;;;;;;7.70;7.30;;;19.30;99.90;;;;;;4993329;28;20023;-68
2021/09/18 06:00:05;;;;;;;7.80;7.30;;;19.50;99.90;;;;;;4993577;28;20022;-69
2021/09/18 06:02:32;;;;;;;7.65;7.22;;;19.50;99.90;;;;;;4993136;28;20159;-68
2021/09/18 06:05:00;;;;;;;7.57;7.18;;;19.50;99.90;;;;;;4993368;28;20468;-67
2021/09/18 06:07:27;;;;;;;8.00;7.60;;;19.50;99.90;;;;;;4993381;28;20537;-68
2021/09/18 06:09:54;;;;;;;7.78;7.38;;;19.40;99.90;;;;;;4993132;28;20046;-67
2021/09/18 06:12:22;;;;;;;8.35;7.88;;;19.40;99.90;;;;;;4993267;28;20023;-67
2021/09/18 06:14:49;;;;;;;7.60;7.10;;;19.40;99.90;;;;;;4993319;28;20491;-68
2021/09/18 06:17:16;;;;;;;7.55;7.15;;;19.30;99.90;;;;;;4993148;28;20387;-68
2021/09/18 06:19:44;;;;;;;7.43;7.10;;;19.40;99.90;;;;;;4993134;28;20022;-67
2021/09/18 06:22:12;;;;;;;7.40;6.97;;;19.30;99.90;;;;;;4993263;28;20085;-66
2021/09/18 06:24:43;;;;;;;8.00;7.30;;;19.30;99.90;;;;;;4996841;28;20044;-68
2021/09/18 06:27:11;;;;;;;8.23;7.70;;;19.30;99.90;;;;;;4997089;28;20068;-67
2021/09/18 06:29:41;;;;;;;7.07;6.78;;;19.20;99.90;;;;;;4995576;28;20455;-67
2021/09/18 06:32:09;;;;;;;6.50;5.97;;;19.20;99.90;;;;;;4996855;28;20483;-66
2021/09/18 06:34:37;;;;;;;6.10;5.90;;;19.30;99.90;;;;;;4996699;28;20027;-66
2021/09/18 06:37:06;;;;;;;5.93;5.63;;;19.30;99.90;;;;;;4996462;28;20034;-67
2021/09/18 06:39:34;;;;;;;6.28;5.97;;;19.40;99.90;;;;;;4996677;28;20073;-66
2021/09/18 06:42:02;;;;;;;6.38;6.07;;;19.50;99.90;;;;;;4996778;28;20081;-66
2021/09/18 06:44:29;;;;;;;6.13;5.88;;;19.50;99.90;;;;;;4996593;28;20030;-67
2021/09/18 06:46:56;;;;;;;6.50;6.18;;;19.40;99.90;;;;;;4996802;28;20020;-67
2021/09/18 06:49:24;;;;;;;6.13;5.82;;;19.50;99.90;;;;;;4996648;28;20041;-67
2021/09/18 06:51:51;;;;;;;6.53;6.13;;;19.60;99.90;;;;;;4996463;28;20430;-68
2021/09/18 06:54:18;;;;;;;5.03;4.72;;;19.80;99.90;;;;;;4996550;28;20020;-66
2021/09/18 06:56:46;;;;;;;5.03;4.72;;;19.80;99.90;;;;;;4996284;28;20019;-66
2021/09/18 06:59:13;;;;;;;4.30;4.05;;;19.80;99.90;;;;;;4996450;28;20165;-68
2021/09/18 07:01:43;;;;;;;4.00;3.80;;;19.80;99.90;;;;;;4996425;28;20018;-66
2021/09/18 07:04:11;;;;;;;4.40;4.10;;;19.80;99.90;;;;;;4996377;28;20493;-67
2021/09/18 07:06:38;;;;;;;4.00;3.80;;;19.70;99.90;;;;;;4996169;28;20111;-66
2021/09/18 07:09:06;;;;;;;4.15;3.95;;;19.70;99.90;;;;;;4995987;28;20053;-68
2021/09/18 07:11:33;;;;;;;4.00;3.80;;;19.70;99.90;;;;;;4996163;28;20030;-65
2021/09/18 07:14:00;;;;;;;4.10;3.90;;;19.60;99.90;;;;;;4996212;28;20479;-69
2021/09/18 07:16:27;;;;;;;4.10;3.80;;;19.50;99.90;;;;;;4996075;28;20034;-67
2021/09/18 07:18:55;;;;;;;3.85;3.65;;;19.50;99.90;;;;;;4994798;28;20129;-66
2021/09/18 07:21:22;;;;;;;3.50;3.30;;;19.40;99.90;;;;;;4996062;28;20065;-67
2021/09/18 07:23:49;;;;;;;3.42;3.20;;;19.50;99.90;;;;;;4996032;28;20026;-67
2021/09/18 07:26:17;;;;;;;3.40;3.10;;;19.40;99.90;;;;;;4995971;28;20030;-67
2021/09/18 07:28:44;;;;;;;3.85;3.13;;;19.40;99.90;;;;;;4995892;28;20030;-66
2021/09/18 07:31:12;;;;;;;2.92;2.72;;;19.30;99.90;;;;;;4996021;28;20077;-66
2021/09/18 07:33:39;;;;;;;3.58;2.97;;;19.40;99.90;;;;;;4995741;28;20026;-67
2021/09/18 07:36:07;;;;;;;3.00;2.80;;;19.20;99.90;;;;;;4995743;28;20037;-67
2021/09/18 07:38:34;;;;;;;2.90;2.72;;;19.20;99.90;;;;;;4995749;28;20034;-67
2021/09/18 07:41:01;;;;;;;3.13;2.83;;;19.00;99.90;;;;;;4994899;28;20088;-67
2021/09/18 07:43:29;;;;;;;4.00;3.35;;;18.90;99.90;;;;;;4995705;28;20022;-67
2021/09/18 07:45:57;;;;;;;3.35;2.83;;;18.80;99.90;;;;;;4995643;28;20022;-68
2021/09/18 07:48:24;;;;;;;2.92;2.58;;;18.70;99.90;;;;;;4995638;28;20055;-68
2021/09/18 07:50:51;;;;;;;3.00;2.80;;;18.60;99.90;;;;;;4995525;28;20026;-69
2021/09/18 07:53:19;;;;;;;3.10;2.65;;;18.50;99.90;;;;;;4995544;28;20057;-68
2021/09/18 07:55:46;;;;;;;3.15;2.85;;;18.40;99.90;;;;;;4995447;28;20124;-66
2021/09/18 07:58:14;;;;;;;3.83;3.53;;;18.30;99.90;;;;;;4995330;28;20054;-66
2021/09/18 08:00:41;;;;;;;3.40;3.10;;;18.10;99.90;;;;;;4994060;28;20479;-68
2021/09/18 08:03:09;;;;;;;2.97;2.88;;;18.00;99.90;;;;;;4995340;28;20542;-68
2021/09/18 08:05:39;;;;;;;3.10;2.80;;;18.00;99.90;;;;;;4993984;28;20035;-67
2021/09/18 08:08:07;;;;;;;3.40;3.10;;;18.10;99.90;;;;;;4993963;28;20037;-67
2021/09/18 08:10:34;;;;;;;4.05;3.65;;;18.10;99.90;;;;;;4993801;28;20130;-67
2021/09/18 08:13:02;;;;;;;3.40;3.20;;;18.00;99.90;;;;;;4995205;28;20026;-67
2021/09/18 08:15:29;;;;;;;3.72;3.42;;;18.00;99.90;;;;;;4993887;28;20104;-67
2021/09/18 08:17:57;;;;;;;3.88;3.58;;;18.00;99.90;;;;;;4995049;28;20034;-67
2021/09/18 08:20:24;;;;;;;3.25;2.90;;;17.90;99.90;;;;;;4993749;28;20027;-67
2021/09/18 08:22:54;;;;;;;3.08;2.88;;;17.90;99.90;;;;;;4995101;28;20019;-66
2021/09/18 08:25:21;;;;;;;5.35;3.72;;;17.80;99.90;;;;;;4995250;28;20015;-67
2021/09/18 08:27:49;;;;;;;3.60;3.30;;;17.60;99.90;;;;;;4995040;28;20034;-67
2021/09/18 08:30:19;;;;;;;3.55;3.35;;;17.60;99.90;;;;;;4994937;28;20102;-66
2021/09/18 08:32:46;;;;;;;;;;;17.60;99.90;;;;;;4995326;28;20487;-68
2021/09/18 08:35:14;;;;;;;4.07;3.70;;;17.50;99.90;;;;;;4993874;28;19952;-67
2021/09/18 08:37:41;;;;;;;4.03;3.72;;;17.40;99.90;;;;;;4994713;28;20026;-68
2021/09/18 08:40:09;;;;;;;6.35;4.22;;;17.40;99.90;;;;;;4993455;28;20483;-67
2021/09/18 08:42:41;;;;;;;3.75;3.47;;;17.20;99.90;;;;;;4994753;28;20045;-67
2021/09/18 08:45:12;;;;;;;5.22;4.00;;;17.20;99.90;;;;;;4994522;28;20046;-68
2021/09/18 08:47:42;;;;;;;3.80;3.10;;;17.30;99.90;;;;;;4994276;28;20097;-67
2021/09/18 08:50:14;;;;;;;5.37;3.47;;;17.40;99.90;;;;;;4994457;28;20167;-66
2021/09/18 08:52:43;;;;;;;4.30;3.55;;;17.70;99.90;;;;;;4994480;28;20256;-68
2021/09/18 08:55:11;;;;;;;4.43;3.65;;;17.80;99.90;;;;;;4994328;28;20026;-66
2021/09/18 08:57:41;;;;;;;4.00;3.65;;;17.90;99.90;;;;;;4994535;28;20029;-66
2021/09/18 09:00:09;;;;;;;;;;;18.00;99.90;;;;;;4993468;28;20019;-66
2021/09/18 09:02:39;;;;;;;4.75;3.45;;;18.00;99.90;;;;;;4994265;28;19905;-67
2021/09/18 09:05:10;;;;;;;4.63;4.07;;;17.90;99.90;;;;;;4994198;28;20030;-67
2021/09/18 09:07:38;;;;;;;4.13;3.75;;;17.80;99.90;;;;;;4994124;28;20034;-66
2021/09/18 09:10:09;;;;;;;4.55;3.60;;;17.80;99.90;;;;;;4993788;28;20050;-67
2021/09/18 09:12:40;;;;;;;5.68;4.03;;;17.80;99.90;;;;;;4993998;28;20022;-65
2021/09/18 09:15:22;;;;;;;5.28;4.00;;;17.80;99.90;;;;;;4994270;28;20030;-67
2021/09/18 09:17:53;;;;;;;4.10;3.80;;;17.70;99.90;;;;;;4993920;28;20030;-66
2021/09/18 09:20:25;;;;;;;4.55;4.13;;;17.50;99.90;;;;;;4994003;28;20029;-67
2021/09/18 09:22:52;;;;;;;4.18;3.80;;;17.40;99.90;;;;;;4993996;28;20022;-67
2021/09/18 09:25:36;;;;;;;5.18;3.92;;;17.30;99.90;;;;;;4993794;28;20022;-66
2021/09/18 09:28:32;;;;;;;4.22;3.83;;;17.20;99.90;;;;;;4993893;28;20044;-66
2021/09/18 09:31:16;;;;;;;3.92;3.63;;;17.00;99.90;;;;;;4993909;28;20435;-66
2021/09/18 09:34:07;;;;;;;3.85;3.25;;;16.90;99.90;;;;;;4993979;28;20030;-67
2021/09/18 09:36:42;;;;;;;4.28;3.88;;;16.90;99.90;;;;;;4993745;28;20033;-67
2021/09/18 09:39:12;;;;;;;4.22;3.35;;;17.00;99.90;;;;;;4993839;28;20098;-67
2021/09/18 09:41:43;;;;;;;3.13;2.92;;;16.90;99.90;;;;;;4993702;28;20033;-66
2021/09/18 09:44:29;;;;;;;4.75;3.63;;;17.00;99.90;;;;;;4993687;28;20068;-66
2021/09/18 09:47:07;;;;;;;6.00;3.10;;;17.00;99.90;;;;;;4993751;28;20029;-67
2021/09/18 09:49:58;;;;;;;3.78;2.70;;;17.00;99.90;;;;;;4993480;28;20069;-67
2021/09/18 09:52:27;;;;;;;5.88;3.22;;;17.00;99.90;;;;;;4993601;28;20019;-65
2021/09/18 09:55:11;;;;;;;3.25;2.85;;;17.00;99.90;;;;;;4992395;28;20499;-67
2021/09/18 09:57:39;;;;;;;3.83;3.17;;;17.10;99.90;;;;;;4992590;28;20092;-66
2021/09/18 10:00:13;;;;;;;3.85;3.17;;;17.10;99.90;;;;;;4993468;28;20524;-67
2021/09/18 10:02:41;;;;;;;3.45;3.10;;;17.10;99.90;;;;;;4993442;28;20022;-65
2021/09/18 10:05:11;;;;;;;4.55;3.10;;;16.90;99.90;;;;;;4993453;28;20048;-67
2021/09/18 10:07:39;;;;;;;4.43;3.72;;;16.90;99.90;;;;;;4993466;28;20027;-68
2021/09/18 10:10:13;;;;;;;5.18;3.70;;;16.90;99.90;;;;;;4993193;28;20476;-66
2021/09/18 10:12:41;;;;;;;5.45;4.05;;;16.80;99.90;;;;;;4993281;28;20057;-67
2021/09/18 10:15:10;;;;;;;4.70;3.90;;;16.80;99.90;;;;;;4991987;28;20034;-67
2021/09/18 10:17:46;;;;;;;4.05;3.65;;;16.80;99.90;;;;;;4993111;28;20042;-65
2021/09/18 10:25:38;;;;;;;6.60;4.72;;;16.80;99.90;;;;;;4993543;28;20032;-70
2021/09/18 10:28:18;;;;;;;4.30;3.90;;;16.80;99.90;;;;;;4993370;28;20452;-66
2021/09/18 10:30:55;;;;;;;3.97;3.35;;;16.70;99.90;;;;;;4993251;28;20050;-68
2021/09/18 10:33:41;;;;;;;5.00;3.75;;;16.60;99.90;;;;;;4993197;28;20030;-67
2021/09/18 10:36:14;;;;;;;3.83;3.30;;;16.50;99.90;;;;;;4993107;28;20018;-66
2021/09/18 10:39:03;;;;;;;5.05;3.95;;;16.60;99.90;;;;;;4993236;28;20023;-67
2021/09/18 10:41:44;;;;;;;3.78;3.45;;;16.50;99.90;;;;;;4991854;28;20025;-65
2021/09/18 10:44:13;;;;;;;5.75;3.30;;;16.60;99.80;;;;;;4993129;28;20073;-69
2021/09/18 10:46:52;;;;;;;4.30;3.15;;;16.60;99.60;;;;;;4992912;28;20037;-67
2021/09/18 10:49:43;;;;;;;4.30;3.40;;;16.60;99.50;;;;;;4993049;28;20031;-67
2021/09/18 10:52:20;;;;;;;4.65;3.38;;;16.60;99.30;;;;;;4993011;28;20026;-67
2021/09/18 10:55:02;;;;;;;4.53;3.30;;;16.50;99.30;;;;;;4992947;28;20049;-66
2021/09/18 10:57:41;;;;;;;4.57;3.20;;;16.50;98.90;;;;;;4993231;28;20029;-67
2021/09/18 11:00:24;;;;;;;3.85;3.22;;;16.50;98.80;;;;;;4992984;28;20069;-67
2021/09/18 11:02:57;;;;;;;4.13;3.72;;;16.60;98.60;;;;;;4993135;28;20365;-68
2021/09/18 11:05:27;;;;;;;3.38;3.08;;;16.60;98.60;;;;;;4992823;28;20048;-67
2021/09/18 11:07:55;;;;;;;6.43;3.70;;;16.60;98.50;;;;;;4992798;28;20550;-67
2021/09/18 11:10:22;;;;;;;4.10;3.58;;;16.50;98.60;;;;;;4994210;28;20101;-67
2021/09/18 11:13:08;;;;;;;4.85;3.25;;;16.60;98.50;;;;;;4995418;28;20050;-67
2021/09/18 11:15:44;;;;;;;4.38;3.75;;;16.60;97.70;;;;;;4996303;28;20019;-67
2021/09/18 11:18:17;;;;;;;4.03;3.47;;;16.60;98.00;;;;;;4995105;28;20093;-68
2021/09/18 11:20:48;;;;;;;4.68;3.70;;;16.40;98.50;;;;;;4996065;28;20053;-67
2021/09/18 11:23:31;;;;;;;;;;;16.40;98.90;;;;;;4996590;28;20110;-66
2021/09/18 11:25:58;;;;;;;5.65;3.45;;;16.30;98.90;;;;;;4994860;28;19960;-67
2021/09/18 11:28:36;;;;;;;5.00;3.50;;;16.20;98.90;;;;;;4996008;28;20053;-67
2021/09/18 11:31:10;;;;;;;4.25;3.00;;;16.20;99.10;;;;;;4996011;28;20511;-66
2021/09/18 11:33:37;;;;;;;6.95;3.55;;;16.10;98.80;;;;;;4995875;28;20033;-67
2021/09/18 11:36:05;;;;;;;6.47;3.17;;;16.10;99.00;;;;;;4995825;28;20387;-67
2021/09/18 11:38:34;;;;;;;3.95;2.70;;;16.00;98.70;;;;;;4995789;28;20105;-66
2021/09/18 11:41:07;;;;;;;3.50;2.83;;;16.10;98.60;;;;;;4995802;28;20076;-66
2021/09/18 11:43:35;;;;;;;5.47;2.90;;;16.10;98.10;;;;;;4995729;28;20018;-67
2021/09/18 11:46:04;;;;;;;8.23;2.83;;;16.10;98.20;;;;;;4995741;28;20026;-66
2021/09/18 11:48:32;;;;;;;3.70;2.60;;;16.10;98.00;;;;;;4994570;28;20493;-66
2021/09/18 11:51:05;;;;;;;3.72;2.90;;;16.00;98.00;;;;;;4995567;28;20026;-66
2021/09/18 11:53:34;;;;;;;4.38;2.80;;;15.90;98.20;;;;;;4994302;28;20031;-68
2021/09/18 11:56:02;;;;;;;4.55;2.88;;;15.80;98.40;;;;;;4995651;28;20081;-68
2021/09/18 11:58:33;;;;;;;5.47;2.88;;;15.80;98.10;;;;;;4994092;28;20023;-68
2021/09/18 12:01:02;;;;;;;4.18;3.05;;;15.60;99.00;;;;;;4995441;28;20034;-68
2021/09/18 12:03:40;;;;;;;4.18;2.92;;;15.50;98.70;;;;;;4995324;28;20023;-67
2021/09/18 12:06:19;;;;;;;4.82;3.05;;;15.50;98.90;;;;;;4995334;28;20149;-67
2021/09/18 12:08:49;;;;;;;4.90;2.90;;;15.30;98.60;;;;;;4995303;28;20041;-68
2021/09/18 12:11:19;;;;;;;7.18;2.90;;;15.40;97.90;;;;;;4995236;28;20031;-67
2021/09/18 12:13:49;;;;;;;5.80;3.13;;;15.30;97.90;;;;;;4995585;28;20418;-67
2021/09/18 12:16:19;;;;;;;4.60;2.70;;;15.20;98.60;;;;;;4995191;28;20033;-67
2021/09/18 12:18:52;;;;;;;4.45;3.08;;;15.10;98.20;;;;;;4994968;28;20030;-66
2021/09/18 12:21:21;;;;;;;5.07;2.72;;;15.10;97.30;;;;;;4994259;28;20019;-66
2021/09/18 12:24:06;;;;;;;3.80;2.85;;;15.10;97.40;;;;;;4994966;28;20022;-66
2021/09/18 12:26:38;;;;;;;3.80;3.17;;;15.00;97.10;;;;;;4994917;28;20019;-66
2021/09/18 12:29:07;;;;;;;4.13;2.80;;;15.00;97.40;;;;;;4993611;28;20038;-66
2021/09/18 12:31:35;;;;;;;3.88;2.67;;;15.00;97.10;;;;;;4994938;28;20026;-67
2021/09/18 12:34:13;;;;;;;3.70;2.60;;;15.00;96.50;;;;;;4994770;28;20077;-67
2021/09/18 12:36:42;;;;;;;5.28;2.75;;;14.90;97.10;;;;;;4995100;28;20081;-67
2021/09/18 12:39:10;;;;;;;3.47;2.60;;;14.80;96.40;;;;;;4994578;28;20031;-67
2021/09/18 12:41:39;;;;;;;3.88;2.60;;;14.90;96.00;;;;;;4994668;28;20022;-66
2021/09/18 12:44:11;;;;;;;3.05;2.60;;;14.80;96.50;;;;;;4994632;28;20097;-67
2021/09/18 12:46:44;;;;;;;3.10;2.80;;;14.80;96.00;;;;;;4994669;28;20538;-67
2021/09/18 12:49:12;;;;;;;2.67;2.45;;;14.80;96.10;;;;;;4994754;28;20387;-67
2021/09/18 12:51:42;;;;;;;3.42;2.50;;;14.80;95.40;;;;;;4994418;28;20022;-67
2021/09/18 12:54:19;;;;;;;4.88;2.78;;;14.80;95.20;;;;;;4993205;28;20483;-67
2021/09/18 12:56:53;;;;;;;3.25;2.20;;;14.80;95.40;;;;;;4994385;28;20079;-67
2021/09/18 12:59:22;;;;;;;3.38;2.65;;;14.80;95.30;;;;;;4994313;28;20034;-67
2021/09/18 13:02:02;;;;;;;2.80;2.50;;;14.80;94.30;;;;;;4994334;28;20379;-67
2021/09/18 13:04:34;;;;;;;2.80;2.40;;;14.80;94.40;;;;;;4994350;28;20046;-67